Terminal Aerodrome Forecast
Issued by NWS

Home | Current Version | Previous Version | Text Only | Print | Product List | Glossary On
Versions: 1 2 3 4 5 6 7 8 9 10 11 12 13 14 15 16 17
000
FTUS41 KPBZ 021720
TAFDUJ
TAF
KDUJ 021720Z 0218/0318 24008G16KT P6SM BKN040
     FM030300 21005KT P6SM SCT250
     FM031500 23010KT P6SM VCSH BKN040=

USA.gov is the U.S. government's official web portal to all federal, state and local government web resources and services.